createdAt,value
2022-11-14T00:02:27.161Z,91.67
2022-11-14T00:05:49.378Z,91.27
2022-11-14T00:09:11.391Z,93.20
2022-11-14T00:12:32.936Z,96.60
2022-11-14T00:15:55.835Z,88.77
2022-11-14T00:19:17.998Z,83.87
2022-11-14T00:22:39.634Z,95.10
2022-11-14T00:26:01.194Z,99.23
2022-11-14T00:29:23.609Z,95.20
2022-11-14T00:32:46.641Z,92.87
2022-11-14T00:36:08.891Z,96.53
2022-11-14T00:39:30.830Z,98.57
2022-11-14T00:42:57.155Z,93.50
2022-11-14T00:46:19.418Z,95.10
2022-11-14T00:49:42.731Z,102.87
2022-11-14T00:53:04.093Z,95.83
2022-11-14T00:56:26.071Z,99.23
2022-11-14T00:59:47.551Z,107.90
2022-11-14T01:03:09.146Z,103.00
2022-11-14T01:06:32.331Z,104.73
2022-11-14T01:09:56.180Z,112.10
2022-11-14T01:13:19.442Z,106.17
2022-11-14T01:16:40.876Z,105.30
2022-11-14T01:20:03.149Z,109.50
2022-11-14T01:23:26.268Z,107.33
2022-11-14T01:26:48.381Z,110.47
2022-11-14T01:30:11.014Z,116.07
2022-11-14T01:33:33.120Z,113.27
2022-11-14T01:36:57.052Z,110.43
2022-11-14T01:40:20.335Z,112.57
2022-11-14T01:43:43.031Z,107.83
2022-11-14T01:47:05.815Z,110.33
2022-11-14T01:50:29.218Z,105.83
2022-11-14T01:53:56.441Z,114.40
2022-11-14T01:57:24.279Z,126.10
2022-11-14T02:00:45.848Z,118.67
2022-11-14T02:04:12.788Z,125.13
2022-11-14T02:07:40.655Z,122.37
2022-11-14T02:11:02.699Z,120.70
2022-11-14T02:14:25.618Z,125.17
2022-11-14T02:17:47.024Z,120.43
2022-11-14T02:21:11.402Z,119.07
2022-11-14T02:24:33.162Z,122.67
2022-11-14T02:27:58.053Z,122.83
2022-11-14T02:31:20.079Z,116.70
2022-11-14T02:35:22.529Z,119.40
2022-11-14T02:38:45.590Z,117.73
2022-11-14T02:42:07.392Z,112.93
2022-11-14T02:45:31.936Z,118.23
2022-11-14T02:48:53.289Z,108.00
2022-11-14T02:52:18.589Z,112.80
2022-11-14T02:55:41.691Z,112.37
2022-11-14T02:59:03.203Z,107.43
2022-11-14T03:02:24.821Z,117.40
2022-11-14T03:05:46.422Z,104.90
2022-11-14T03:09:08.406Z,109.33
2022-11-14T03:12:31.304Z,102.93
2022-11-14T03:15:52.830Z,107.80
2022-11-14T03:19:14.828Z,112.00
2022-11-14T03:22:36.322Z,109.53
2022-11-14T03:26:02.104Z,112.63
2022-11-14T03:29:25.049Z,119.97
2022-11-14T03:32:46.876Z,121.23
2022-11-14T03:36:10.072Z,112.73
2022-11-14T03:39:32.580Z,118.90
2022-11-14T03:42:54.071Z,108.63
2022-11-14T03:46:16.995Z,116.37
2022-11-14T03:49:38.906Z,115.60
2022-11-14T03:53:01.156Z,124.87
2022-11-14T03:56:22.852Z,122.10
2022-11-14T03:59:45.026Z,119.80
2022-11-14T04:03:08.540Z,113.63
2022-11-14T04:06:30.288Z,114.40
2022-11-14T04:09:52.380Z,115.60
2022-11-14T04:13:13.803Z,116.40
2022-11-14T04:16:35.475Z,129.50
2022-11-14T04:19:58.819Z,126.53
2022-11-14T04:23:21.202Z,119.23
2022-11-14T04:26:42.659Z,134.10
2022-11-14T04:30:05.286Z,125.80
2022-11-14T04:33:26.886Z,126.23
2022-11-14T04:36:51.159Z,123.47
2022-11-14T04:40:13.233Z,123.73
2022-11-14T04:43:36.879Z,131.07
2022-11-14T04:46:58.420Z,127.03
2022-11-14T04:50:20.072Z,128.83
2022-11-14T04:53:42.999Z,133.20
2022-11-14T04:57:04.789Z,134.27
2022-11-14T05:00:30.221Z,132.57
2022-11-14T05:03:52.167Z,123.53
2022-11-14T05:07:14.231Z,130.93
2022-11-14T05:10:37.281Z,128.27
2022-11-14T05:13:58.918Z,122.17
2022-11-14T05:17:20.692Z,125.20
2022-11-14T05:20:42.257Z,134.53
2022-11-14T05:24:04.069Z,136.40
2022-11-14T05:27:27.362Z,130.37
2022-11-14T05:30:49.043Z,119.93
2022-11-14T05:34:11.019Z,127.33
2022-11-14T05:37:32.787Z,123.20
2022-11-14T05:40:54.390Z,120.67
2022-11-14T05:44:17.429Z,130.37
2022-11-14T05:47:39.343Z,129.37
2022-11-14T05:51:04.916Z,124.43
2022-11-14T05:54:26.507Z,130.07
2022-11-14T05:57:48.535Z,138.93
2022-11-14T06:01:13.928Z,123.47
2022-11-14T06:04:35.490Z,122.70
2022-11-14T06:07:57.714Z,129.00
2022-11-14T06:11:21.284Z,125.43
2022-11-14T06:14:43.272Z,121.90
2022-11-14T06:18:06.259Z,128.57
2022-11-14T06:21:28.012Z,135.20
2022-11-14T06:24:49.756Z,130.17
2022-11-14T06:28:11.360Z,130.73
2022-11-14T06:31:33.161Z,128.93
2022-11-14T06:34:56.113Z,128.20
2022-11-14T06:38:18.068Z,134.57
2022-11-14T06:41:41.968Z,119.40
2022-11-14T06:45:03.735Z,130.50
2022-11-14T06:48:26.076Z,125.00
2022-11-14T06:51:48.867Z,126.17
2022-11-14T06:55:10.779Z,124.93
2022-11-14T06:58:35.521Z,123.63
2022-11-14T07:01:57.484Z,123.03
2022-11-14T07:05:19.426Z,128.53
2022-11-14T07:08:42.529Z,134.53
2022-11-14T07:12:06.984Z,123.53
2022-11-14T07:15:29.431Z,121.90
2022-11-14T07:18:50.901Z,128.60
2022-11-14T07:22:12.756Z,126.90
2022-11-14T07:25:35.742Z,119.43
2022-11-14T07:29:02.104Z,122.13
2022-11-14T07:32:24.538Z,125.30
2022-11-14T07:35:45.969Z,119.33
2022-11-14T07:39:07.980Z,131.03
2022-11-14T07:42:31.356Z,127.87
2022-11-14T07:45:53.367Z,123.13
2022-11-14T07:49:14.833Z,125.60
2022-11-14T07:52:36.787Z,126.30
2022-11-14T07:56:02.546Z,118.90
2022-11-14T07:59:25.343Z,113.80
2022-11-14T08:02:47.292Z,122.50
2022-11-14T08:06:13.310Z,116.77
2022-11-14T08:09:35.272Z,122.70
2022-11-14T08:13:25.283Z,126.00
2022-11-14T08:16:43.933Z,126.83
2022-11-14T08:20:07.875Z,116.17
2022-11-14T08:23:29.234Z,119.33
2022-11-14T08:26:51.195Z,125.43
2022-11-14T08:30:14.479Z,122.80
2022-11-14T08:33:37.783Z,119.60
2022-11-14T08:36:59.698Z,125.93
2022-11-14T08:40:21.187Z,110.43
2022-11-14T08:43:43.053Z,111.13
2022-11-14T08:47:05.152Z,115.07
2022-11-14T08:50:28.332Z,100.80
2022-11-14T08:53:51.498Z,102.13
2022-11-14T08:57:15.250Z,93.67
2022-11-14T09:00:37.027Z,90.10
2022-11-14T09:03:59.966Z,94.50
2022-11-14T09:07:23.393Z,93.83
2022-11-14T09:10:45.201Z,95.17
2022-11-14T09:14:06.715Z,95.80
2022-11-14T09:17:28.195Z,95.13
2022-11-14T09:20:49.673Z,101.17
2022-11-14T09:24:12.707Z,97.87
2022-11-14T09:27:34.376Z,89.90
2022-11-14T09:31:01.999Z,93.50
2022-11-14T09:34:23.683Z,93.87
2022-11-14T09:37:45.083Z,88.90
2022-11-14T09:41:24.869Z,90.10
2022-11-14T09:44:55.263Z,80.90
2022-11-14T09:48:21.333Z,75.73
2022-11-14T09:51:52.049Z,81.17
2022-11-14T09:55:18.972Z,82.67
2022-11-14T09:58:43.474Z,78.90
2022-11-14T10:02:32.665Z,83.23
2022-11-14T10:06:13.717Z,79.23
2022-11-14T10:09:52.574Z,78.73
2022-11-14T10:13:39.324Z,79.93
2022-11-14T10:17:21.090Z,83.27
2022-11-14T10:20:48.885Z,77.07
2022-11-14T10:24:32.334Z,69.27
2022-11-14T10:28:16.841Z,78.17
2022-11-14T10:31:50.122Z,75.47
2022-11-14T10:35:17.463Z,74.93
2022-11-14T10:38:44.945Z,68.33
2022-11-14T10:42:15.686Z,75.23
2022-11-14T10:45:44.545Z,75.67
2022-11-14T10:49:17.162Z,72.07
2022-11-14T10:52:44.040Z,65.20
2022-11-14T10:56:06.098Z,62.17
2022-11-14T10:59:28.096Z,62.53
2022-11-14T11:02:53.647Z,62.37
2022-11-14T11:06:27.374Z,61.83
2022-11-14T11:10:18.715Z,63.17
2022-11-14T11:13:51.877Z,61.63
2022-11-14T11:17:23.164Z,58.90
2022-11-14T11:20:44.707Z,59.60
2022-11-14T11:24:07.486Z,61.70
2022-11-14T11:27:31.469Z,58.00
2022-11-14T11:30:58.140Z,57.03
2022-11-14T11:34:25.988Z,56.50
2022-11-14T11:37:54.644Z,55.60
2022-11-14T11:45:17.547Z,56.50
2022-11-14T11:48:40.761Z,62.47
2022-11-14T11:52:06.939Z,59.83
2022-11-14T11:55:31.958Z,56.50
2022-11-14T11:59:01.340Z,50.70
2022-11-14T12:02:27.680Z,46.67
2022-11-14T12:06:04.654Z,47.53
2022-11-14T12:10:08.336Z,43.57
2022-11-14T12:13:46.488Z,42.00
2022-11-14T12:17:37.325Z,45.33
2022-11-14T12:21:36.577Z,43.37
2022-11-14T12:25:35.851Z,45.03
2022-11-14T12:29:17.962Z,43.40
2022-11-14T12:32:47.998Z,45.13
2022-11-14T12:36:12.775Z,39.43
2022-11-14T12:39:34.744Z,41.57
2022-11-14T12:42:57.747Z,41.13
2022-11-14T12:46:19.479Z,42.50
2022-11-14T12:50:06.659Z,45.10
2022-11-14T12:53:44.708Z,41.13
2022-11-14T12:57:11.198Z,46.90
2022-11-14T13:00:35.994Z,45.00
2022-11-14T13:04:17.776Z,39.70
2022-11-14T13:07:52.226Z,42.07
2022-11-14T13:11:55.316Z,40.57
2022-11-14T13:15:49.204Z,38.60
2022-11-14T13:19:39.680Z,41.90
2022-11-14T13:23:02.785Z,35.57
2022-11-14T13:26:55.106Z,37.07
2022-11-14T13:30:17.429Z,35.43
2022-11-14T13:33:42.783Z,34.97
2022-11-14T13:37:20.004Z,34.20
2022-11-14T13:40:53.618Z,32.80
2022-11-14T13:44:50.057Z,31.60
2022-11-14T13:48:44.812Z,30.67
2022-11-14T13:52:09.474Z,31.73
2022-11-14T13:55:39.907Z,32.00
2022-11-14T13:59:56.697Z,34.23
2022-11-14T14:03:38.298Z,28.40
2022-11-14T14:07:12.943Z,30.57
2022-11-14T14:10:44.207Z,30.53
2022-11-14T14:14:32.242Z,31.30
2022-11-14T14:18:09.570Z,28.43
2022-11-14T14:21:45.069Z,32.10
2022-11-14T14:25:24.022Z,29.60
2022-11-14T14:28:56.347Z,29.80
2022-11-14T14:32:21.525Z,30.43
2022-11-14T14:35:54.680Z,30.30
2022-11-14T14:39:19.968Z,33.67
2022-11-14T14:42:47.213Z,31.73
2022-11-14T14:46:13.823Z,32.93
2022-11-14T14:49:38.133Z,33.90
2022-11-14T14:53:05.134Z,36.80
2022-11-14T14:56:30.461Z,32.23
2022-11-14T15:00:00.963Z,30.20
2022-11-14T15:03:23.835Z,33.80
2022-11-14T15:06:48.202Z,35.80
2022-11-14T15:10:24.456Z,36.20
2022-11-14T15:13:48.148Z,38.80
2022-11-14T15:17:11.610Z,40.83
2022-11-14T15:20:33.292Z,40.43
2022-11-14T15:24:03.724Z,42.57
2022-11-14T15:27:26.390Z,40.50
2022-11-14T15:30:59.235Z,41.97
2022-11-14T15:34:30.692Z,41.27
2022-11-14T15:38:28.895Z,46.23
2022-11-14T15:41:45.309Z,44.60
2022-11-14T15:48:35.647Z,42.63
2022-11-14T15:51:59.848Z,43.60
2022-11-14T15:55:24.045Z,41.93
2022-11-14T15:58:49.312Z,42.33
2022-11-14T16:02:17.541Z,40.00
2022-11-14T16:05:40.463Z,43.93
2022-11-14T16:09:02.056Z,38.80
2022-11-14T16:12:23.838Z,42.43
2022-11-14T16:15:45.616Z,45.23
2022-11-14T16:19:08.112Z,43.80
2022-11-14T16:22:31.335Z,45.83
2022-11-14T16:25:53.394Z,46.30
2022-11-14T16:29:16.472Z,45.40
2022-11-14T16:32:38.781Z,40.93
2022-11-14T16:36:00.657Z,44.43
2022-11-14T16:39:24.022Z,44.27
2022-11-14T16:42:46.293Z,44.53
2022-11-14T16:46:09.098Z,48.17
2022-11-14T16:49:33.002Z,45.63
2022-11-14T16:52:55.187Z,51.33
2022-11-14T16:56:18.264Z,48.40
2022-11-14T16:59:39.980Z,48.70
2022-11-14T17:03:01.738Z,46.63
2022-11-14T17:06:23.726Z,48.53
2022-11-14T17:09:45.566Z,47.00
2022-11-14T17:13:09.022Z,48.97
2022-11-14T17:16:30.780Z,50.23
2022-11-14T17:19:52.996Z,47.60
2022-11-14T17:23:14.647Z,45.60
2022-11-14T17:26:36.665Z,43.80
2022-11-14T17:29:59.647Z,48.90
2022-11-14T17:33:21.130Z,45.97
2022-11-14T17:36:43.166Z,47.23
2022-11-14T17:40:05.944Z,47.77
2022-11-14T17:43:34.312Z,47.40
2022-11-14T17:47:00.104Z,43.60
2022-11-14T17:50:21.816Z,49.63
2022-11-14T17:53:43.991Z,48.67
2022-11-14T17:57:05.829Z,47.87
2022-11-14T18:00:27.267Z,46.27
2022-11-14T18:03:50.602Z,49.03
2022-11-14T18:07:12.239Z,45.23
2022-11-14T18:10:34.149Z,53.57
2022-11-14T18:13:56.472Z,47.07
2022-11-14T18:17:18.102Z,49.07
2022-11-14T18:20:41.269Z,48.67
2022-11-14T18:24:03.045Z,46.27
2022-11-14T18:27:27.506Z,52.40
2022-11-14T18:30:55.683Z,50.13
2022-11-14T18:34:17.736Z,52.80
2022-11-14T18:37:40.634Z,48.77
2022-11-14T18:41:04.296Z,51.73
2022-11-14T18:44:25.799Z,47.03
2022-11-14T18:47:47.810Z,46.17
2022-11-14T18:51:13.642Z,51.47
2022-11-14T18:54:36.531Z,44.57
2022-11-14T18:57:58.561Z,46.93
2022-11-14T19:01:24.861Z,46.83
2022-11-14T19:04:46.728Z,54.43
2022-11-14T19:08:08.907Z,53.33
2022-11-14T19:11:50.271Z,53.33
2022-11-14T19:15:12.105Z,54.20
2022-11-14T19:18:34.158Z,51.57
2022-11-14T19:21:59.201Z,49.67
2022-11-14T19:25:20.782Z,53.30
2022-11-14T19:28:44.641Z,55.30
2022-11-14T19:32:09.620Z,49.37
2022-11-14T19:35:31.418Z,51.63
2022-11-14T19:38:55.755Z,55.00
2022-11-14T19:42:17.577Z,46.63
2022-11-14T19:45:41.273Z,51.23
2022-11-14T19:49:03.878Z,49.73
2022-11-14T19:52:26.109Z,48.93
2022-11-14T19:55:47.705Z,48.60
2022-11-14T19:59:14.772Z,47.47
2022-11-14T20:02:40.476Z,46.97
2022-11-14T20:06:02.540Z,53.70
2022-11-14T20:09:24.328Z,48.50
2022-11-14T20:12:46.207Z,52.07
2022-11-14T20:16:20.104Z,55.80
2022-11-14T20:19:42.819Z,52.53
2022-11-14T20:23:06.152Z,56.47
2022-11-14T20:26:27.838Z,53.27
2022-11-14T20:29:49.606Z,50.37
2022-11-14T20:33:11.755Z,46.67
2022-11-14T20:36:56.492Z,45.13
2022-11-14T20:40:16.834Z,51.27
2022-11-14T20:43:38.960Z,55.73
2022-11-14T20:47:00.755Z,51.07
2022-11-14T20:50:22.468Z,54.93
2022-11-14T20:53:46.085Z,56.87
2022-11-14T20:57:07.897Z,57.03
2022-11-14T21:00:29.449Z,51.67
2022-11-14T21:03:51.100Z,52.23
2022-11-14T21:07:12.621Z,55.13
2022-11-14T21:10:47.766Z,57.83
2022-11-14T21:14:11.714Z,55.93
2022-11-14T21:17:33.250Z,57.57
2022-11-14T21:21:04.082Z,57.07
2022-11-14T21:24:25.672Z,56.53
2022-11-14T21:27:48.354Z,58.03
2022-11-14T21:31:19.024Z,53.07
2022-11-14T21:34:41.156Z,53.73
2022-11-14T21:38:03.021Z,53.40
2022-11-14T21:41:28.138Z,58.77
2022-11-14T21:44:51.602Z,56.47
2022-11-14T21:48:13.468Z,59.50
2022-11-14T21:51:35.239Z,56.60
2022-11-14T21:54:56.956Z,61.80
2022-11-14T21:58:18.751Z,58.57
2022-11-14T22:02:01.655Z,56.97
2022-11-14T22:05:23.418Z,56.93
2022-11-14T22:08:45.387Z,60.30
2022-11-14T22:12:08.626Z,61.17
2022-11-14T22:15:30.301Z,57.30
2022-11-14T22:18:55.714Z,61.70
2022-11-14T22:22:19.865Z,58.10
2022-11-14T22:25:41.519Z,60.23
2022-11-14T22:29:03.234Z,58.57
2022-11-14T22:32:24.789Z,53.73
2022-11-14T22:35:48.491Z,54.10
2022-11-14T22:39:10.220Z,53.57
2022-11-14T22:42:31.851Z,62.00
2022-11-14T22:45:54.175Z,52.93
2022-11-14T22:49:20.698Z,56.30
2022-11-14T22:52:44.233Z,62.43
2022-11-14T22:56:11.629Z,56.47
2022-11-14T22:59:33.517Z,57.10
2022-11-14T23:02:55.258Z,61.07
2022-11-14T23:06:19.826Z,58.17
2022-11-14T23:09:43.968Z,51.97
2022-11-14T23:13:07.113Z,56.90
2022-11-14T23:16:31.361Z,55.77
2022-11-14T23:19:52.698Z,56.37
2022-11-14T23:23:15.728Z,53.10
2022-11-14T23:26:38.822Z,57.40
2022-11-14T23:30:00.761Z,57.73
2022-11-14T23:33:22.481Z,56.17
2022-11-14T23:36:43.979Z,62.70
2022-11-14T23:40:07.122Z,57.93
2022-11-14T23:43:31.678Z,59.83
2022-11-14T23:46:53.592Z,56.93
2022-11-14T23:50:16.131Z,57.07
2022-11-14T23:53:38.205Z,61.87
2022-11-14T23:57:04.081Z,59.00
